createdAt,value
2022-11-27T00:01:21.460Z,3.97
2022-11-27T00:03:50.102Z,3.92
2022-11-27T00:06:22.679Z,2.83
2022-11-27T00:08:51.210Z,3.65
2022-11-27T00:11:21.391Z,3.30
2022-11-27T00:13:50.529Z,3.67
2022-11-27T00:16:20.174Z,2.75
2022-11-27T00:18:49.069Z,2.50
2022-11-27T00:21:22.665Z,2.70
2022-11-27T00:23:51.045Z,3.15
2022-11-27T00:26:19.153Z,2.67
2022-11-27T00:28:47.958Z,2.53
2022-11-27T00:31:18.125Z,2.17
2022-11-27T00:33:46.864Z,2.95
2022-11-27T00:36:15.901Z,2.60
2022-11-27T00:38:45.491Z,2.95
2022-11-27T00:41:16.613Z,2.65
2022-11-27T00:43:45.660Z,3.22
2022-11-27T00:46:14.404Z,2.60
2022-11-27T00:48:42.917Z,2.63
2022-11-27T00:51:13.888Z,2.42
2022-11-27T00:53:42.699Z,2.90
2022-11-27T00:56:17.191Z,2.30
2022-11-27T00:58:45.347Z,2.92
2022-11-27T01:01:18.882Z,3.70
2022-11-27T01:03:47.918Z,2.30
2022-11-27T01:06:17.135Z,2.95
2022-11-27T01:08:45.565Z,2.45
2022-11-27T01:11:18.148Z,2.65
2022-11-27T01:13:46.728Z,2.83
2022-11-27T01:16:17.401Z,2.88
2022-11-27T01:18:47.263Z,2.72
2022-11-27T01:21:18.020Z,3.30
2022-11-27T01:23:46.361Z,3.05
2022-11-27T01:26:17.853Z,2.97
2022-11-27T01:28:46.778Z,3.17
2022-11-27T01:31:16.832Z,3.47
2022-11-27T01:33:46.014Z,3.42
2022-11-27T01:36:15.778Z,3.50
2022-11-27T01:38:44.201Z,3.20
2022-11-27T01:41:17.513Z,2.90
2022-11-27T01:43:47.058Z,2.90
2022-11-27T01:46:25.755Z,2.90
2022-11-27T01:48:57.000Z,3.00
2022-11-27T01:51:25.529Z,3.40
2022-11-27T01:53:54.976Z,2.90
2022-11-27T01:56:25.486Z,2.72
2022-11-27T01:58:53.896Z,2.55
2022-11-27T02:01:24.380Z,3.35
2022-11-27T02:03:53.001Z,2.90
2022-11-27T02:06:21.344Z,3.20
2022-11-27T02:08:49.532Z,2.50
2022-11-27T02:11:25.296Z,2.80
2022-11-27T02:14:03.588Z,3.30
2022-11-27T02:16:37.979Z,2.70
2022-11-27T02:19:15.550Z,2.60
2022-11-27T02:21:48.216Z,2.92
2022-11-27T02:24:43.010Z,3.03
2022-11-27T02:27:34.659Z,3.22
2022-11-27T02:30:06.878Z,3.17
2022-11-27T02:32:40.869Z,3.63
2022-11-27T02:35:16.046Z,3.28
2022-11-27T02:37:50.016Z,3.20
2022-11-27T02:40:24.589Z,3.00
2022-11-27T02:42:56.987Z,2.72
2022-11-27T02:45:31.621Z,2.58
2022-11-27T02:48:01.140Z,3.17
2022-11-27T02:50:30.929Z,2.85
2022-11-27T02:53:05.257Z,2.63
2022-11-27T02:55:35.540Z,3.10
2022-11-27T02:58:08.456Z,2.70
2022-11-27T03:00:39.693Z,2.50
2022-11-27T03:03:10.993Z,3.03
2022-11-27T03:05:42.663Z,3.15
2022-11-27T03:08:18.297Z,3.90
2022-11-27T03:10:52.195Z,3.08
2022-11-27T03:13:20.379Z,3.03
2022-11-27T03:16:00.752Z,3.13
2022-11-27T03:18:38.494Z,3.03
2022-11-27T03:21:15.440Z,3.20
2022-11-27T03:23:43.874Z,2.60
2022-11-27T03:26:11.877Z,3.03
2022-11-27T03:28:40.523Z,2.72
2022-11-27T03:31:09.977Z,2.95
2022-11-27T03:33:38.092Z,2.90
2022-11-27T03:36:13.506Z,3.83
2022-11-27T03:38:42.182Z,3.92
2022-11-27T03:41:18.714Z,3.67
2022-11-27T03:43:54.448Z,3.10
2022-11-27T03:46:32.722Z,3.10
2022-11-27T03:49:07.609Z,3.30
2022-11-27T03:51:47.687Z,2.63
2022-11-27T03:54:23.457Z,2.80
2022-11-27T03:57:00.359Z,3.10
2022-11-27T03:59:31.333Z,2.65
2022-11-27T04:02:00.737Z,3.00
2022-11-27T04:04:28.813Z,2.80
2022-11-27T04:06:56.905Z,3.30
2022-11-27T04:09:25.489Z,2.65
2022-11-27T04:11:53.892Z,3.65
2022-11-27T04:14:22.313Z,2.65
2022-11-27T04:16:50.338Z,2.83
2022-11-27T04:19:19.721Z,2.83
2022-11-27T04:21:47.707Z,3.00
2022-11-27T04:24:16.225Z,2.85
2022-11-27T04:26:44.220Z,3.22
2022-11-27T04:29:12.253Z,3.13
2022-11-27T04:31:40.657Z,2.92
2022-11-27T04:34:09.081Z,2.90
2022-11-27T04:36:39.653Z,2.90
2022-11-27T04:39:07.846Z,2.85
2022-11-27T04:41:35.883Z,2.53
2022-11-27T04:44:04.257Z,2.80
2022-11-27T04:46:32.342Z,2.93
2022-11-27T04:49:00.729Z,2.88
2022-11-27T04:51:28.713Z,2.42
2022-11-27T04:53:58.342Z,2.70
2022-11-27T04:56:26.669Z,2.57
2022-11-27T04:58:54.688Z,2.70
2022-11-27T05:01:22.771Z,2.85
2022-11-27T05:03:51.333Z,2.58
2022-11-27T05:06:19.786Z,2.60
2022-11-27T05:08:47.816Z,2.30
2022-11-27T05:11:19.064Z,2.47
2022-11-27T05:13:48.077Z,2.30
2022-11-27T05:16:16.155Z,2.53
2022-11-27T05:18:44.315Z,2.57
2022-11-27T05:21:12.333Z,3.00
2022-11-27T05:23:40.305Z,2.63
2022-11-27T05:26:08.293Z,3.13
2022-11-27T05:28:37.723Z,3.07
2022-11-27T05:31:05.948Z,3.43
2022-11-27T05:33:34.017Z,3.03
2022-11-27T05:36:02.433Z,2.60
2022-11-27T05:38:30.431Z,3.43
2022-11-27T05:40:58.411Z,3.10
2022-11-27T05:43:26.447Z,3.53
2022-11-27T05:45:55.789Z,3.67
2022-11-27T05:48:23.846Z,3.33
2022-11-27T05:50:52.202Z,3.17
2022-11-27T05:53:20.199Z,3.17
2022-11-27T05:55:48.224Z,3.20
2022-11-27T05:58:16.484Z,3.60
2022-11-27T06:00:44.465Z,3.37
2022-11-27T06:03:14.101Z,3.57
2022-11-27T06:05:42.576Z,3.53
2022-11-27T06:08:10.958Z,4.25
2022-11-27T06:10:39.706Z,2.83
2022-11-27T06:13:08.108Z,3.60
2022-11-27T06:15:37.370Z,3.25
2022-11-27T06:18:05.906Z,3.23
2022-11-27T06:20:38.441Z,2.83
2022-11-27T06:23:09.096Z,3.27
2022-11-27T06:25:37.112Z,3.60
2022-11-27T06:28:05.502Z,3.30
2022-11-27T06:30:33.589Z,3.15
2022-11-27T06:33:01.593Z,3.83
2022-11-27T06:35:29.629Z,3.57
2022-11-27T06:37:58.989Z,2.73
2022-11-27T06:40:26.978Z,2.43
2022-11-27T06:42:55.034Z,3.30
2022-11-27T06:45:23.036Z,3.73
2022-11-27T06:47:51.074Z,4.50
2022-11-27T06:50:19.191Z,4.63
2022-11-27T06:52:47.189Z,4.60
2022-11-27T06:55:17.189Z,6.13
2022-11-27T06:57:45.278Z,6.93
2022-11-27T07:00:14.332Z,7.50
2022-11-27T07:02:42.357Z,6.23
2022-11-27T07:05:10.641Z,5.97
2022-11-27T07:07:43.649Z,5.83
2022-11-27T07:10:12.392Z,5.50
2022-11-27T07:12:41.984Z,6.00
2022-11-27T07:15:11.296Z,6.10
2022-11-27T07:17:39.292Z,6.30
2022-11-27T07:20:09.011Z,6.93
2022-11-27T07:22:37.029Z,6.10
2022-11-27T07:25:05.643Z,4.80
2022-11-27T07:27:33.752Z,4.47
2022-11-27T07:30:03.432Z,5.03
2022-11-27T07:32:32.188Z,5.17
2022-11-27T07:35:00.497Z,9.27
2022-11-27T07:37:31.760Z,14.20
2022-11-27T07:40:03.025Z,10.93
2022-11-27T07:42:39.533Z,6.80
2022-11-27T07:45:10.401Z,5.67
2022-11-27T07:47:38.851Z,4.90
2022-11-27T07:50:08.502Z,5.63
2022-11-27T07:52:41.401Z,6.00
2022-11-27T07:55:10.531Z,5.20
2022-11-27T07:57:38.536Z,5.27
2022-11-27T08:00:09.691Z,6.10
2022-11-27T08:02:37.719Z,5.93
2022-11-27T08:05:12.152Z,4.80
2022-11-27T08:07:40.826Z,4.17
2022-11-27T08:10:09.804Z,4.00
2022-11-27T08:12:37.827Z,4.10
2022-11-27T08:15:06.551Z,3.93
2022-11-27T08:17:35.923Z,4.20
2022-11-27T08:20:04.952Z,5.23
2022-11-27T08:22:33.291Z,4.53
2022-11-27T08:25:01.439Z,4.43
2022-11-27T08:27:33.017Z,4.27
2022-11-27T08:30:01.872Z,4.13
2022-11-27T08:32:29.882Z,4.10
2022-11-27T08:34:59.464Z,4.40
2022-11-27T08:37:27.461Z,4.47
2022-11-27T08:39:55.429Z,3.60
2022-11-27T08:42:23.809Z,4.05
2022-11-27T08:44:51.782Z,4.55
2022-11-27T08:47:19.911Z,4.30
2022-11-27T08:49:47.939Z,4.63
2022-11-27T08:52:17.412Z,5.40
2022-11-27T08:54:45.409Z,4.40
2022-11-27T08:57:13.381Z,4.32
2022-11-27T08:59:41.757Z,3.83
2022-11-27T09:02:12.740Z,4.05
2022-11-27T09:04:40.932Z,4.40
2022-11-27T09:07:11.162Z,4.25
2022-11-27T09:09:41.101Z,4.20
2022-11-27T09:12:09.387Z,4.25
2022-11-27T09:14:37.804Z,6.68
2022-11-27T09:17:06.379Z,5.68
2022-11-27T09:19:34.401Z,5.25
2022-11-27T09:22:02.546Z,4.93
2022-11-27T09:24:30.568Z,4.78
2022-11-27T09:27:00.338Z,4.57
2022-11-27T09:29:28.332Z,4.60
2022-11-27T09:31:56.367Z,5.60
2022-11-27T09:34:24.385Z,4.28
2022-11-27T09:36:52.397Z,4.60
2022-11-27T09:39:20.584Z,4.20
2022-11-27T09:41:52.557Z,4.97
2022-11-27T09:44:30.261Z,4.32
2022-11-27T09:47:01.454Z,5.63
2022-11-27T09:49:36.142Z,4.82
2022-11-27T09:52:08.241Z,4.47
2022-11-27T09:54:41.634Z,5.18
2022-11-27T09:57:16.850Z,3.63
2022-11-27T09:59:50.648Z,4.10
2022-11-27T10:02:21.245Z,4.15
2022-11-27T10:05:12.810Z,4.40
2022-11-27T10:07:48.799Z,5.43
2022-11-27T10:10:31.486Z,4.85
2022-11-27T10:13:11.056Z,4.78
2022-11-27T10:15:46.768Z,4.20
2022-11-27T10:18:17.861Z,4.82
2022-11-27T10:20:50.552Z,4.80
2022-11-27T10:23:27.099Z,4.85
2022-11-27T10:26:00.184Z,4.57
2022-11-27T10:28:37.778Z,4.32
2022-11-27T10:31:15.093Z,4.75
2022-11-27T10:33:47.386Z,4.90
2022-11-27T10:36:19.184Z,4.07
2022-11-27T10:38:49.142Z,5.00
2022-11-27T10:41:48.244Z,4.80
2022-11-27T10:44:28.712Z,4.63
2022-11-27T10:47:02.882Z,5.53
2022-11-27T10:49:31.307Z,5.35
2022-11-27T10:51:59.288Z,5.47
2022-11-27T10:54:29.920Z,4.97
2022-11-27T10:57:11.515Z,5.72
2022-11-27T10:59:43.445Z,4.60
2022-11-27T11:05:57.500Z,4.93
2022-11-27T11:08:18.734Z,4.93
2022-11-27T11:10:52.664Z,5.97
2022-11-27T11:13:22.604Z,5.32
2022-11-27T11:16:00.101Z,4.75
2022-11-27T11:18:31.051Z,5.28
2022-11-27T11:21:02.452Z,5.40
2022-11-27T11:23:34.067Z,5.20
2022-11-27T11:26:06.393Z,4.68
2022-11-27T11:28:42.156Z,5.13
2022-11-27T11:31:12.097Z,5.30
2022-11-27T11:33:49.221Z,5.63
2022-11-27T11:36:18.676Z,6.20
2022-11-27T11:38:48.168Z,5.82
2022-11-27T11:41:18.158Z,5.95
2022-11-27T11:43:56.735Z,6.03
2022-11-27T11:46:28.614Z,6.35
2022-11-27T11:49:02.853Z,5.70
2022-11-27T11:51:58.552Z,5.65
2022-11-27T11:54:40.212Z,5.57
2022-11-27T11:57:27.334Z,5.30
2022-11-27T12:00:03.260Z,7.05
2022-11-27T12:02:48.929Z,6.97
2022-11-27T12:05:26.071Z,6.50
2022-11-27T12:08:08.629Z,5.93
2022-11-27T12:10:49.506Z,4.53
2022-11-27T12:13:33.003Z,4.32
2022-11-27T12:16:07.746Z,4.55
2022-11-27T12:18:56.604Z,6.75
2022-11-27T12:21:32.945Z,5.35
2022-11-27T12:24:15.110Z,5.03
2022-11-27T12:26:55.806Z,5.82
2022-11-27T12:29:50.272Z,5.75
2022-11-27T12:32:50.496Z,4.80
2022-11-27T12:35:32.735Z,5.53
2022-11-27T12:38:24.494Z,5.22
2022-11-27T12:41:22.565Z,4.97
2022-11-27T12:43:56.430Z,4.70
2022-11-27T12:46:30.434Z,4.78
2022-11-27T12:49:02.945Z,5.63
2022-11-27T12:51:36.176Z,5.50
2022-11-27T12:54:07.639Z,5.47
2022-11-27T12:56:41.669Z,5.75
2022-11-27T12:59:16.026Z,5.57
2022-11-27T13:01:48.044Z,6.38
2022-11-27T13:04:23.362Z,6.55
2022-11-27T13:06:57.532Z,5.88
2022-11-27T13:09:37.029Z,5.57
2022-11-27T13:12:08.479Z,5.10
2022-11-27T13:14:39.255Z,5.13
2022-11-27T13:17:15.745Z,5.15
2022-11-27T13:19:48.170Z,5.10
2022-11-27T13:22:21.621Z,4.28
2022-11-27T13:24:49.722Z,4.20
2022-11-27T13:27:23.657Z,3.72
2022-11-27T13:29:55.430Z,3.83
2022-11-27T13:32:26.440Z,3.45
2022-11-27T13:34:58.702Z,3.17
2022-11-27T13:37:32.890Z,3.15
2022-11-27T13:40:04.998Z,3.60
2022-11-27T13:42:36.901Z,3.30
2022-11-27T13:45:11.114Z,3.40
2022-11-27T13:47:42.438Z,3.00
2022-11-27T13:50:13.653Z,3.38
2022-11-27T13:52:54.824Z,2.88
2022-11-27T13:55:27.210Z,3.10
2022-11-27T13:57:59.486Z,3.30
2022-11-27T14:00:36.647Z,3.13
2022-11-27T14:03:05.695Z,3.13
2022-11-27T14:05:39.873Z,3.17
2022-11-27T14:08:19.553Z,2.97
2022-11-27T14:10:55.239Z,2.90
2022-11-27T14:13:37.670Z,3.15
2022-11-27T14:16:25.342Z,3.78
2022-11-27T14:18:54.802Z,3.50
2022-11-27T14:21:27.035Z,4.32
2022-11-27T14:23:55.718Z,4.10
2022-11-27T14:26:25.970Z,3.40
2022-11-27T14:28:57.011Z,3.28
2022-11-27T14:31:30.971Z,4.13
2022-11-27T14:34:23.210Z,4.35
2022-11-27T14:36:53.584Z,3.92
2022-11-27T14:39:25.833Z,4.45
2022-11-27T14:42:01.822Z,4.47
2022-11-27T14:44:31.998Z,4.15
2022-11-27T14:47:03.179Z,4.30
2022-11-27T14:49:32.830Z,5.03
2022-11-27T14:52:04.931Z,3.92
2022-11-27T14:54:35.657Z,5.68
2022-11-27T14:57:05.177Z,4.82
2022-11-27T14:59:34.884Z,5.05
2022-11-27T15:02:05.060Z,5.18
2022-11-27T15:04:36.326Z,4.43
2022-11-27T15:07:08.141Z,5.38
2022-11-27T15:09:37.565Z,8.10
2022-11-27T15:12:15.665Z,5.57
2022-11-27T15:14:52.729Z,5.10
2022-11-27T15:17:27.092Z,6.03
2022-11-27T15:19:56.194Z,5.85
2022-11-27T15:22:25.345Z,5.88
2022-11-27T15:25:00.590Z,5.35
2022-11-27T15:27:29.068Z,5.78
2022-11-27T15:30:03.342Z,5.28
2022-11-27T15:32:51.515Z,7.03
2022-11-27T15:35:26.436Z,6.82
2022-11-27T15:37:56.293Z,5.30
2022-11-27T15:40:33.504Z,7.22
2022-11-27T15:43:01.905Z,5.32
2022-11-27T15:45:32.917Z,5.50
2022-11-27T15:48:02.810Z,5.75
2022-11-27T15:50:31.501Z,4.78
2022-11-27T15:53:00.949Z,5.10
2022-11-27T15:55:29.332Z,5.22
2022-11-27T15:57:57.716Z,5.00
2022-11-27T16:00:26.081Z,5.38
2022-11-27T16:02:55.532Z,5.65
2022-11-27T16:05:23.607Z,5.50
2022-11-27T16:07:55.163Z,5.28
2022-11-27T16:10:23.823Z,5.68
2022-11-27T16:12:55.069Z,5.82
2022-11-27T16:15:25.800Z,4.38
2022-11-27T16:17:58.147Z,5.65
2022-11-27T16:20:26.505Z,5.07
2022-11-27T16:22:54.521Z,5.22
2022-11-27T16:25:22.573Z,5.20
2022-11-27T16:27:50.604Z,5.15
2022-11-27T16:30:20.064Z,4.65
2022-11-27T16:32:48.123Z,4.88
2022-11-27T16:35:17.815Z,5.40
2022-11-27T16:37:45.834Z,5.95
2022-11-27T16:40:15.246Z,5.30
2022-11-27T16:42:43.227Z,5.13
2022-11-27T16:45:11.588Z,6.10
2022-11-27T16:47:39.854Z,4.88
2022-11-27T16:50:09.976Z,5.20
2022-11-27T16:52:39.401Z,4.90
2022-11-27T16:55:08.196Z,5.28
2022-11-27T16:57:36.205Z,5.07
2022-11-27T17:00:05.109Z,5.43
2022-11-27T17:02:33.191Z,4.50
2022-11-27T17:05:01.277Z,5.00
2022-11-27T17:07:29.693Z,5.45
2022-11-27T17:09:59.062Z,5.63
2022-11-27T17:12:27.291Z,5.57
2022-11-27T17:14:55.319Z,4.90
2022-11-27T17:17:23.309Z,5.90
2022-11-27T17:19:55.080Z,5.53
2022-11-27T17:22:23.479Z,5.38
2022-11-27T17:24:51.818Z,6.15
2022-11-27T17:27:21.214Z,5.18
2022-11-27T17:29:49.224Z,6.03
2022-11-27T17:32:18.180Z,5.63
2022-11-27T17:34:46.725Z,5.07
2022-11-27T17:37:14.770Z,4.72
2022-11-27T17:39:43.775Z,6.10
2022-11-27T17:42:14.593Z,4.85
2022-11-27T17:44:45.830Z,5.97
2022-11-27T17:47:14.153Z,5.90
2022-11-27T17:49:42.438Z,5.20
2022-11-27T17:52:10.641Z,5.20
2022-11-27T17:54:38.637Z,5.20
2022-11-27T17:57:06.933Z,5.25
2022-11-27T17:59:34.916Z,5.00
2022-11-27T18:02:04.352Z,5.25
2022-11-27T18:04:32.723Z,5.03
2022-11-27T18:07:00.718Z,5.72
2022-11-27T18:09:28.759Z,5.68
2022-11-27T18:11:57.435Z,6.32
2022-11-27T18:14:26.104Z,6.28
2022-11-27T18:16:54.282Z,6.07
2022-11-27T18:19:23.930Z,5.97
2022-11-27T18:21:52.258Z,5.72
2022-11-27T18:24:23.563Z,6.30
2022-11-27T18:27:07.619Z,6.68
2022-11-27T18:29:36.597Z,6.43
2022-11-27T18:32:04.860Z,6.30
2022-11-27T18:34:35.516Z,4.95
2022-11-27T18:37:03.789Z,4.90
2022-11-27T18:39:32.438Z,5.75
2022-11-27T18:42:00.498Z,5.70
2022-11-27T18:44:28.797Z,5.72
2022-11-27T18:46:57.050Z,5.93
2022-11-27T18:49:25.509Z,6.80
2022-11-27T18:51:56.668Z,6.55
2022-11-27T18:54:25.491Z,5.55
2022-11-27T18:56:53.629Z,7.43
2022-11-27T18:59:21.997Z,5.78
2022-11-27T19:01:50.190Z,6.70
2022-11-27T19:04:18.824Z,7.78
2022-11-27T19:06:47.389Z,7.00
2022-11-27T19:09:34.616Z,6.57
2022-11-27T19:12:02.660Z,7.65
2022-11-27T19:14:30.983Z,7.05
2022-11-27T19:16:59.478Z,7.45
2022-11-27T19:22:16.976Z,5.80
2022-11-27T19:24:47.026Z,7.78
2022-11-27T19:27:15.041Z,6.70
2022-11-27T19:29:43.463Z,7.30
2022-11-27T19:32:11.807Z,6.38
2022-11-27T19:34:40.069Z,7.10
2022-11-27T19:37:08.344Z,6.60
2022-11-27T19:39:36.434Z,6.00
2022-11-27T19:42:06.038Z,5.45
2022-11-27T19:44:34.459Z,7.28
2022-11-27T19:47:02.449Z,5.72
2022-11-27T19:49:30.448Z,5.97
2022-11-27T19:51:58.616Z,7.15
2022-11-27T19:54:26.785Z,6.22
2022-11-27T19:56:54.860Z,5.78
2022-11-27T19:59:27.488Z,8.27
2022-11-27T20:01:55.876Z,8.07
2022-11-27T20:04:25.047Z,7.95
2022-11-27T20:06:53.575Z,6.63
2022-11-27T20:09:21.916Z,7.85
2022-11-27T20:11:49.975Z,6.47
2022-11-27T20:14:19.520Z,8.02
2022-11-27T20:16:49.035Z,6.57
2022-11-27T20:19:17.156Z,7.32
2022-11-27T20:21:45.269Z,9.05
2022-11-27T20:24:13.331Z,7.00
2022-11-27T20:26:42.931Z,6.20
2022-11-27T20:29:12.080Z,6.88
2022-11-27T20:31:43.843Z,6.65
2022-11-27T20:34:18.151Z,6.70
2022-11-27T20:36:46.394Z,6.97
2022-11-27T20:39:20.606Z,5.75
2022-11-27T20:41:50.917Z,6.72
2022-11-27T20:44:19.061Z,5.55
2022-11-27T20:46:47.175Z,5.70
2022-11-27T20:49:16.712Z,6.72
2022-11-27T20:51:44.900Z,7.10
2022-11-27T20:54:13.055Z,6.97
2022-11-27T20:56:43.267Z,7.03
2022-11-27T20:59:12.536Z,6.82
2022-11-27T21:01:42.509Z,5.93
2022-11-27T21:04:20.797Z,7.25
2022-11-27T21:06:49.266Z,7.35
2022-11-27T21:09:18.032Z,6.88
2022-11-27T21:11:47.454Z,6.68
2022-11-27T21:14:17.031Z,6.10
2022-11-27T21:16:48.509Z,5.90
2022-11-27T21:19:20.652Z,6.43
2022-11-27T21:21:49.742Z,5.57
2022-11-27T21:24:18.717Z,7.10
2022-11-27T21:26:46.880Z,6.30
2022-11-27T21:29:15.281Z,6.43
2022-11-27T21:31:46.778Z,6.40
2022-11-27T21:34:15.966Z,5.90
2022-11-27T21:36:45.932Z,5.00
2022-11-27T21:39:20.164Z,4.90
2022-11-27T21:41:49.641Z,5.38
2022-11-27T21:44:18.636Z,6.15
2022-11-27T21:46:47.409Z,7.32
2022-11-27T21:49:17.126Z,6.97
2022-11-27T21:51:46.674Z,7.70
2022-11-27T21:54:16.042Z,7.45
2022-11-27T21:56:44.189Z,7.38
2022-11-27T21:59:14.175Z,6.20
2022-11-27T22:01:42.244Z,7.00
2022-11-27T22:04:10.353Z,6.75
2022-11-27T22:06:41.179Z,8.05
2022-11-27T22:09:15.361Z,6.47
2022-11-27T22:11:44.746Z,7.13
2022-11-27T22:14:13.286Z,6.90
2022-11-27T22:16:45.419Z,7.18
2022-11-27T22:19:14.733Z,7.30
2022-11-27T22:21:43.961Z,6.57
2022-11-27T22:24:18.316Z,5.75
2022-11-27T22:26:47.334Z,5.75
2022-11-27T22:29:15.341Z,5.85
2022-11-27T22:31:43.454Z,6.03
2022-11-27T22:34:11.467Z,6.50
2022-11-27T22:36:39.480Z,6.50
2022-11-27T22:39:08.859Z,6.00
2022-11-27T22:41:39.814Z,6.40
2022-11-27T22:44:08.492Z,6.95
2022-11-27T22:46:37.751Z,7.15
2022-11-27T22:49:08.153Z,7.57
2022-11-27T22:51:37.639Z,5.72
2022-11-27T22:54:07.278Z,6.30
2022-11-27T22:56:36.268Z,6.63
2022-11-27T22:59:31.200Z,5.57
2022-11-27T23:01:55.673Z,6.47
2022-11-27T23:04:23.705Z,6.57
2022-11-27T23:06:51.783Z,6.63
2022-11-27T23:09:20.406Z,4.88
2022-11-27T23:11:49.024Z,4.88
2022-11-27T23:14:18.453Z,5.55
2022-11-27T23:16:46.586Z,5.38
2022-11-27T23:19:14.854Z,5.78
2022-11-27T23:21:43.215Z,5.13
2022-11-27T23:24:15.240Z,5.30
2022-11-27T23:26:44.157Z,5.10
2022-11-27T23:29:12.388Z,6.28
2022-11-27T23:31:41.882Z,5.30
2022-11-27T23:34:13.647Z,5.72
2022-11-27T23:36:41.896Z,5.32
2022-11-27T23:39:12.709Z,5.22
2022-11-27T23:41:41.657Z,5.57
2022-11-27T23:44:09.851Z,4.65
2022-11-27T23:46:38.184Z,5.18
2022-11-27T23:49:07.758Z,6.30
2022-11-27T23:51:35.926Z,5.82
2022-11-27T23:54:09.835Z,5.90
2022-11-27T23:56:39.090Z,4.82
2022-11-27T23:59:07.110Z,5.18
